createdAt,value
2022-10-08T00:02:19.733Z,12.37
2022-10-08T00:07:19.920Z,12.18
2022-10-08T00:12:19.660Z,12.36
2022-10-08T00:17:19.827Z,12.22
2022-10-08T00:22:19.663Z,12.17
2022-10-08T00:27:19.691Z,11.89
2022-10-08T00:32:19.693Z,11.81
2022-10-08T00:37:19.780Z,11.69
2022-10-08T00:42:19.898Z,11.76
2022-10-08T00:47:19.701Z,11.75
2022-10-08T00:52:19.673Z,11.66
2022-10-08T00:57:19.704Z,11.52
2022-10-08T01:02:19.810Z,11.56
2022-10-08T01:07:19.964Z,11.47
2022-10-08T01:12:19.732Z,11.39
2022-10-08T01:22:19.756Z,11.36
2022-10-08T01:27:19.708Z,11.24
2022-10-08T01:32:19.675Z,11.23
2022-10-08T01:37:19.831Z,11.15
2022-10-08T01:42:19.688Z,11.24
2022-10-08T01:47:19.725Z,11.38
2022-10-08T01:52:19.757Z,11.20
2022-10-08T02:07:19.731Z,11.05
2022-10-08T02:12:19.706Z,11.01
2022-10-08T02:17:19.830Z,11.02
2022-10-08T02:22:19.734Z,10.99
2022-10-08T02:27:19.731Z,10.82
2022-10-08T02:32:19.745Z,11.06
2022-10-08T02:37:20.089Z,10.82
2022-10-08T02:42:19.761Z,10.96
2022-10-08T02:47:20.031Z,10.64
2022-10-08T02:52:19.754Z,10.60
2022-10-08T02:57:20.009Z,10.77
2022-10-08T03:02:19.832Z,10.69
2022-10-08T03:07:19.966Z,10.66
2022-10-08T03:12:19.723Z,10.67
2022-10-08T03:17:19.942Z,10.74
2022-10-08T03:22:19.770Z,10.68
2022-10-08T03:27:19.906Z,10.69
2022-10-08T03:32:19.737Z,10.62
2022-10-08T03:37:19.749Z,10.45
2022-10-08T03:42:19.742Z,10.35
2022-10-08T03:47:20.050Z,10.42
2022-10-08T03:52:19.746Z,10.30
2022-10-08T03:57:19.814Z,10.16
2022-10-08T04:02:19.872Z,10.12
2022-10-08T04:07:20.114Z,10.16
2022-10-08T04:12:19.819Z,10.09
2022-10-08T04:17:19.780Z,9.99
2022-10-08T04:22:19.756Z,9.79
2022-10-08T04:27:20.065Z,9.83
2022-10-08T04:32:19.770Z,9.95
2022-10-08T04:37:19.778Z,9.75
2022-10-08T04:42:19.809Z,9.74
2022-10-08T04:47:19.974Z,9.89
2022-10-08T04:52:19.764Z,10.04
2022-10-08T04:57:19.803Z,9.96
2022-10-08T05:02:19.819Z,9.92
2022-10-08T05:07:19.802Z,9.72
2022-10-08T05:12:19.817Z,9.47
2022-10-08T05:17:19.836Z,9.62
2022-10-08T05:22:19.786Z,9.46
2022-10-08T05:27:19.821Z,9.43
2022-10-08T05:32:19.818Z,9.54
2022-10-08T05:37:20.152Z,9.74
2022-10-08T05:42:19.784Z,9.80
2022-10-08T05:47:20.098Z,9.81
2022-10-08T05:52:19.836Z,10.03
2022-10-08T05:57:20.081Z,10.11
2022-10-08T06:02:19.945Z,10.23
2022-10-08T06:07:20.070Z,10.34
2022-10-08T06:12:19.835Z,10.36
2022-10-08T06:17:20.021Z,10.44
2022-10-08T06:22:19.871Z,10.54
2022-10-08T06:27:19.991Z,10.58
2022-10-08T06:32:19.845Z,10.73
2022-10-08T06:37:19.958Z,10.75
2022-10-08T06:42:19.824Z,10.85
2022-10-08T06:47:19.923Z,10.95
2022-10-08T06:52:19.831Z,11.05
2022-10-08T06:57:19.917Z,11.29
2022-10-08T07:02:19.874Z,11.49
2022-10-08T07:07:19.894Z,11.67
2022-10-08T07:12:19.870Z,11.92
2022-10-08T07:17:20.240Z,12.09
2022-10-08T07:22:19.830Z,12.38
2022-10-08T07:27:20.145Z,12.49
2022-10-08T07:32:19.873Z,12.62
2022-10-08T07:37:20.087Z,12.89
2022-10-08T07:42:19.881Z,13.26
2022-10-08T07:47:19.890Z,13.79
2022-10-08T07:52:19.887Z,14.96
2022-10-08T07:57:19.898Z,15.74
2022-10-08T08:02:19.918Z,16.51
2022-10-08T08:07:19.904Z,17.33
2022-10-08T08:12:19.910Z,17.07
2022-10-08T08:17:19.988Z,17.74
2022-10-08T08:22:19.859Z,17.93
2022-10-08T08:27:19.940Z,18.39
2022-10-08T08:32:19.885Z,18.89
2022-10-08T08:37:20.241Z,19.43
2022-10-08T08:42:19.912Z,19.97
2022-10-08T08:47:19.908Z,20.05
2022-10-08T08:52:19.876Z,20.43
2022-10-08T08:57:19.910Z,19.81
2022-10-08T09:02:19.915Z,20.80
2022-10-08T09:07:19.883Z,20.60
2022-10-08T09:12:20.806Z,20.77
2022-10-08T09:17:20.114Z,20.09
2022-10-08T09:22:19.898Z,20.21
2022-10-08T09:27:19.927Z,20.92
2022-10-08T09:32:19.926Z,21.18
2022-10-08T09:37:20.054Z,20.05
2022-10-08T09:42:19.913Z,19.45
2022-10-08T09:47:20.034Z,19.98
2022-10-08T09:52:19.931Z,20.11
2022-10-08T09:57:19.976Z,20.17
2022-10-08T10:02:19.954Z,19.67
2022-10-08T10:12:20.085Z,19.70
2022-10-08T10:17:20.254Z,19.23
2022-10-08T10:22:19.929Z,18.96
2022-10-08T10:27:20.190Z,18.87
2022-10-08T10:32:21.177Z,18.81
2022-10-08T10:37:20.201Z,18.89
2022-10-08T10:42:19.979Z,18.85
2022-10-08T10:47:19.972Z,19.09
2022-10-08T10:52:19.943Z,19.00
2022-10-08T10:57:19.983Z,19.02
2022-10-08T11:02:20.010Z,19.06
2022-10-08T11:07:20.180Z,19.31
2022-10-08T11:12:19.944Z,19.54
2022-10-08T11:17:22.250Z,19.17
2022-10-08T11:22:19.960Z,19.49
2022-10-08T11:27:20.022Z,19.33
2022-10-08T11:32:19.986Z,19.46
2022-10-08T11:37:20.322Z,19.47
2022-10-08T11:42:19.985Z,19.62
2022-10-08T11:47:20.082Z,19.67
2022-10-08T11:52:20.003Z,19.74
2022-10-08T12:02:20.127Z,19.80
2022-10-08T12:07:20.034Z,19.81
2022-10-08T12:12:19.971Z,19.79
2022-10-08T12:17:20.103Z,19.61
2022-10-08T12:22:19.984Z,19.69
2022-10-08T12:27:20.020Z,19.73
2022-10-08T12:32:19.988Z,19.74
2022-10-08T12:37:20.023Z,19.88
2022-10-08T12:42:20.042Z,20.04
2022-10-08T12:47:20.012Z,19.88
2022-10-08T12:52:19.993Z,19.92
2022-10-08T12:57:20.040Z,19.97
2022-10-08T13:07:20.346Z,19.87
2022-10-08T13:12:20.011Z,20.02
2022-10-08T13:17:20.030Z,19.97
2022-10-08T13:22:20.041Z,20.00
2022-10-08T13:27:20.299Z,19.95
2022-10-08T13:32:20.075Z,19.94
2022-10-08T13:37:20.054Z,19.92
2022-10-08T13:42:20.053Z,19.90
2022-10-08T13:47:20.092Z,19.93
2022-10-08T13:52:20.052Z,19.89
2022-10-08T13:57:20.076Z,19.88
2022-10-08T14:02:20.139Z,19.84
2022-10-08T14:07:20.186Z,19.82
2022-10-08T14:12:20.050Z,19.81
2022-10-08T14:17:20.159Z,19.82
2022-10-08T14:22:20.091Z,19.76
2022-10-08T14:27:20.126Z,19.78
2022-10-08T14:32:20.086Z,19.77
2022-10-08T14:37:20.404Z,19.75
2022-10-08T14:47:20.644Z,19.69
2022-10-08T14:52:20.067Z,19.61
2022-10-08T14:57:20.352Z,19.57
2022-10-08T15:02:20.158Z,19.56
2022-10-08T15:07:20.322Z,19.55
2022-10-08T15:12:20.094Z,19.40
2022-10-08T15:17:20.356Z,19.19
2022-10-08T15:22:20.101Z,18.95
2022-10-08T15:27:21.078Z,18.96
2022-10-08T15:32:20.133Z,18.89
2022-10-08T15:37:20.137Z,18.75
2022-10-08T15:42:20.129Z,18.68
2022-10-08T15:47:20.325Z,18.58
2022-10-08T15:52:20.072Z,18.48
2022-10-08T15:57:20.121Z,18.35
2022-10-08T16:02:20.225Z,18.33
2022-10-08T16:07:20.440Z,18.19
2022-10-08T16:12:20.116Z,17.94
2022-10-08T16:17:20.386Z,17.69
2022-10-08T16:22:20.147Z,17.55
2022-10-08T16:27:20.384Z,17.35
2022-10-08T16:37:20.360Z,17.21
2022-10-08T16:42:20.128Z,17.06
2022-10-08T16:47:20.160Z,17.07
2022-10-08T16:52:20.275Z,16.83
2022-10-08T16:57:20.153Z,16.68
2022-10-08T17:02:24.950Z,16.61
2022-10-08T17:07:20.168Z,16.54
2022-10-08T17:12:21.968Z,16.30
2022-10-08T17:17:20.311Z,16.27
2022-10-08T17:22:20.132Z,16.35
2022-10-08T17:27:20.180Z,16.24
2022-10-08T17:32:20.249Z,16.12
2022-10-08T17:37:20.508Z,15.92
2022-10-08T17:42:20.175Z,15.81
2022-10-08T17:47:20.195Z,15.68
2022-10-08T17:52:20.192Z,15.70
2022-10-08T17:57:20.425Z,15.74
2022-10-08T18:02:20.245Z,15.63
2022-10-08T18:07:20.638Z,15.59
2022-10-08T18:12:20.232Z,15.57
2022-10-08T18:17:20.374Z,15.44
2022-10-08T18:22:20.414Z,15.23
2022-10-08T18:27:20.552Z,15.34
2022-10-08T18:32:20.350Z,15.09
2022-10-08T18:37:20.413Z,15.02
2022-10-08T18:42:20.424Z,14.87
2022-10-08T18:47:20.277Z,14.99
2022-10-08T18:52:21.649Z,14.79
2022-10-08T18:57:20.418Z,14.86
2022-10-08T19:02:20.273Z,14.58
2022-10-08T19:07:20.785Z,14.61
2022-10-08T19:12:20.331Z,14.51
2022-10-08T19:17:20.684Z,14.38
2022-10-08T19:22:20.494Z,14.27
2022-10-08T19:27:20.477Z,14.19
2022-10-08T19:32:20.830Z,14.43
2022-10-08T19:37:20.474Z,14.34
2022-10-08T19:42:21.748Z,14.29
2022-10-08T19:47:20.311Z,14.20
2022-10-08T19:52:20.511Z,14.07
2022-10-08T19:57:20.487Z,13.98
2022-10-08T20:02:20.262Z,14.04
2022-10-08T20:07:20.360Z,14.06
2022-10-08T20:12:20.229Z,13.89
2022-10-08T20:17:20.335Z,13.65
2022-10-08T20:22:20.261Z,13.80
2022-10-08T20:27:20.275Z,13.54
2022-10-08T20:32:20.229Z,13.48
2022-10-08T20:37:20.283Z,13.62
2022-10-08T20:47:20.790Z,13.61
2022-10-08T20:52:20.232Z,13.71
2022-10-08T20:57:20.484Z,13.63
2022-10-08T21:02:20.314Z,13.68
2022-10-08T21:07:20.496Z,13.69
2022-10-08T21:12:20.230Z,13.55
2022-10-08T21:17:20.428Z,13.40
2022-10-08T21:22:20.283Z,13.45
2022-10-08T21:27:20.395Z,13.22
2022-10-08T21:32:20.253Z,13.32
2022-10-08T21:37:20.289Z,13.30
2022-10-08T21:42:20.293Z,13.14
2022-10-08T21:47:20.285Z,12.83
2022-10-08T21:52:20.262Z,12.90
2022-10-08T21:57:20.324Z,12.83
2022-10-08T22:02:20.349Z,13.01
2022-10-08T22:07:20.586Z,13.04
2022-10-08T22:12:20.323Z,12.97
2022-10-08T22:17:20.836Z,12.93
2022-10-08T22:22:20.268Z,12.63
2022-10-08T22:27:20.527Z,12.55
2022-10-08T22:32:20.283Z,12.52
2022-10-08T22:37:20.491Z,12.50
2022-10-08T22:42:20.317Z,12.52
2022-10-08T22:47:20.313Z,12.58
2022-10-08T22:52:20.317Z,12.62
2022-10-08T22:57:20.315Z,12.63
2022-10-08T23:02:20.346Z,12.64
2022-10-08T23:07:20.308Z,12.65
2022-10-08T23:12:20.404Z,12.72
2022-10-08T23:17:20.341Z,12.57
2022-10-08T23:27:20.628Z,12.40
2022-10-08T23:32:20.310Z,12.26
2022-10-08T23:37:20.630Z,12.20
2022-10-08T23:42:20.353Z,12.09
2022-10-08T23:47:20.620Z,12.19
2022-10-08T23:52:20.309Z,12.11
2022-10-08T23:57:20.718Z,12.12
